sensor_id;sensor_type;location;lat;lon;timestamp;P1;durP1;ratioP1;P2;durP2;ratioP2
3197;SDS011;1611;49.394;11.136;2022-07-10T00:02:02;3.67;;;3.37;;
3197;SDS011;1611;49.394;11.136;2022-07-10T00:04:29;4.37;;;4.00;;
3197;SDS011;1611;49.394;11.136;2022-07-10T00:06:55;4.43;;;4.10;;
3197;SDS011;1611;49.394;11.136;2022-07-10T00:09:23;5.43;;;3.77;;
3197;SDS011;1611;49.394;11.136;2022-07-10T00:11:51;4.10;;;3.80;;
3197;SDS011;1611;49.394;11.136;2022-07-10T00:14:18;4.07;;;3.77;;
3197;SDS011;1611;49.394;11.136;2022-07-10T00:16:45;4.50;;;4.27;;
3197;SDS011;1611;49.394;11.136;2022-07-10T00:19:12;3.90;;;3.60;;
3197;SDS011;1611;49.394;11.136;2022-07-10T00:21:38;4.13;;;3.83;;
3197;SDS011;1611;49.394;11.136;2022-07-10T00:24:05;4.47;;;4.17;;
3197;SDS011;1611;49.394;11.136;2022-07-10T00:26:32;5.93;;;3.83;;
3197;SDS011;1611;49.394;11.136;2022-07-10T00:29:00;3.87;;;3.50;;
3197;SDS011;1611;49.394;11.136;2022-07-10T00:31:27;4.67;;;4.27;;
3197;SDS011;1611;49.394;11.136;2022-07-10T00:33:53;4.30;;;4.00;;
3197;SDS011;1611;49.394;11.136;2022-07-10T00:36:20;4.20;;;3.90;;
3197;SDS011;1611;49.394;11.136;2022-07-10T00:38:47;4.97;;;4.50;;
3197;SDS011;1611;49.394;11.136;2022-07-10T00:41:13;4.67;;;4.03;;
3197;SDS011;1611;49.394;11.136;2022-07-10T00:43:53;6.27;;;4.07;;
3197;SDS011;1611;49.394;11.136;2022-07-10T00:46:21;9.17;;;3.97;;
3197;SDS011;1611;49.394;11.136;2022-07-10T00:48:49;4.80;;;4.47;;
3197;SDS011;1611;49.394;11.136;2022-07-10T00:51:16;4.80;;;4.10;;
3197;SDS011;1611;49.394;11.136;2022-07-10T00:53:44;4.57;;;4.27;;
3197;SDS011;1611;49.394;11.136;2022-07-10T00:56:12;5.30;;;4.90;;
3197;SDS011;1611;49.394;11.136;2022-07-10T00:58:42;5.60;;;5.10;;
3197;SDS011;1611;49.394;11.136;2022-07-10T01:01:09;4.80;;;4.50;;
3197;SDS011;1611;49.394;11.136;2022-07-10T01:03:38;7.80;;;3.70;;
3197;SDS011;1611;49.394;11.136;2022-07-10T01:06:04;4.33;;;4.03;;
3197;SDS011;1611;49.394;11.136;2022-07-10T01:08:32;4.63;;;4.33;;
3197;SDS011;1611;49.394;11.136;2022-07-10T01:10:59;4.00;;;3.80;;
3197;SDS011;1611;49.394;11.136;2022-07-10T01:13:26;4.43;;;4.23;;
3197;SDS011;1611;49.394;11.136;2022-07-10T01:15:53;4.50;;;4.20;;
3197;SDS011;1611;49.394;11.136;2022-07-10T01:18:20;5.50;;;5.10;;
3197;SDS011;1611;49.394;11.136;2022-07-10T01:20:51;5.33;;;4.47;;
3197;SDS011;1611;49.394;11.136;2022-07-10T01:23:19;4.73;;;4.30;;
3197;SDS011;1611;49.394;11.136;2022-07-10T01:25:46;5.00;;;4.40;;
3197;SDS011;1611;49.394;11.136;2022-07-10T01:28:13;4.60;;;4.27;;
3197;SDS011;1611;49.394;11.136;2022-07-10T01:30:40;8.43;;;4.30;;
3197;SDS011;1611;49.394;11.136;2022-07-10T01:33:07;5.40;;;5.00;;
3197;SDS011;1611;49.394;11.136;2022-07-10T01:35:34;5.00;;;4.60;;
3197;SDS011;1611;49.394;11.136;2022-07-10T01:38:02;5.47;;;4.93;;
3197;SDS011;1611;49.394;11.136;2022-07-10T01:40:29;6.07;;;5.53;;
3197;SDS011;1611;49.394;11.136;2022-07-10T01:42:56;7.50;;;6.23;;
3197;SDS011;1611;49.394;11.136;2022-07-10T01:45:23;5.80;;;5.40;;
3197;SDS011;1611;49.394;11.136;2022-07-10T01:47:50;6.20;;;5.80;;
3197;SDS011;1611;49.394;11.136;2022-07-10T01:50:17;5.70;;;5.30;;
3197;SDS011;1611;49.394;11.136;2022-07-10T01:52:44;6.93;;;6.20;;
3197;SDS011;1611;49.394;11.136;2022-07-10T01:55:12;6.37;;;5.90;;
3197;SDS011;1611;49.394;11.136;2022-07-10T01:57:39;6.47;;;5.97;;
3197;SDS011;1611;49.394;11.136;2022-07-10T02:00:07;5.40;;;5.00;;
3197;SDS011;1611;49.394;11.136;2022-07-10T02:02:34;5.83;;;5.43;;
3197;SDS011;1611;49.394;11.136;2022-07-10T02:05:01;5.90;;;5.40;;
3197;SDS011;1611;49.394;11.136;2022-07-10T02:07:27;7.13;;;6.50;;
3197;SDS011;1611;49.394;11.136;2022-07-10T02:09:54;6.30;;;5.70;;
3197;SDS011;1611;49.394;11.136;2022-07-10T02:12:22;7.13;;;5.10;;
3197;SDS011;1611;49.394;11.136;2022-07-10T02:14:48;6.10;;;5.60;;
3197;SDS011;1611;49.394;11.136;2022-07-10T02:17:15;8.60;;;6.20;;
3197;SDS011;1611;49.394;11.136;2022-07-10T02:19:42;6.13;;;5.57;;
3197;SDS011;1611;49.394;11.136;2022-07-10T02:22:08;6.40;;;5.27;;
3197;SDS011;1611;49.394;11.136;2022-07-10T02:24:35;5.00;;;4.80;;
3197;SDS011;1611;49.394;11.136;2022-07-10T02:27:02;6.43;;;4.70;;
3197;SDS011;1611;49.394;11.136;2022-07-10T02:29:31;7.90;;;5.33;;
3197;SDS011;1611;49.394;11.136;2022-07-10T02:31:58;6.60;;;5.00;;
3197;SDS011;1611;49.394;11.136;2022-07-10T02:34:24;8.07;;;5.40;;
3197;SDS011;1611;49.394;11.136;2022-07-10T02:36:51;5.10;;;4.70;;
3197;SDS011;1611;49.394;11.136;2022-07-10T02:39:18;7.40;;;5.30;;
3197;SDS011;1611;49.394;11.136;2022-07-10T02:41:47;5.70;;;5.07;;
3197;SDS011;1611;49.394;11.136;2022-07-10T02:44:13;4.70;;;4.30;;
3197;SDS011;1611;49.394;11.136;2022-07-10T02:46:42;4.13;;;3.93;;
3197;SDS011;1611;49.394;11.136;2022-07-10T02:49:09;9.40;;;4.47;;
3197;SDS011;1611;49.394;11.136;2022-07-10T02:51:36;5.23;;;4.20;;
3197;SDS011;1611;49.394;11.136;2022-07-10T02:54:02;4.83;;;4.33;;
3197;SDS011;1611;49.394;11.136;2022-07-10T02:56:29;4.93;;;4.50;;
3197;SDS011;1611;49.394;11.136;2022-07-10T02:58:56;5.57;;;4.53;;
3197;SDS011;1611;49.394;11.136;2022-07-10T03:01:23;5.60;;;4.70;;
3197;SDS011;1611;49.394;11.136;2022-07-10T03:03:51;3.50;;;3.30;;
3197;SDS011;1611;49.394;11.136;2022-07-10T03:06:17;4.47;;;4.03;;
3197;SDS011;1611;49.394;11.136;2022-07-10T03:08:44;8.07;;;4.00;;
3197;SDS011;1611;49.394;11.136;2022-07-10T03:11:11;12.13;;;3.57;;
3197;SDS011;1611;49.394;11.136;2022-07-10T03:13:38;4.20;;;3.00;;
3197;SDS011;1611;49.394;11.136;2022-07-10T03:16:04;14.03;;;3.57;;
3197;SDS011;1611;49.394;11.136;2022-07-10T03:18:31;5.70;;;3.13;;
3197;SDS011;1611;49.394;11.136;2022-07-10T03:20:59;6.13;;;2.80;;
3197;SDS011;1611;49.394;11.136;2022-07-10T03:23:26;4.10;;;3.20;;
3197;SDS011;1611;49.394;11.136;2022-07-10T03:25:53;4.00;;;2.63;;
3197;SDS011;1611;49.394;11.136;2022-07-10T03:28:20;4.17;;;2.70;;
3197;SDS011;1611;49.394;11.136;2022-07-10T03:30:46;3.23;;;2.77;;
3197;SDS011;1611;49.394;11.136;2022-07-10T03:33:13;2.60;;;2.43;;
3197;SDS011;1611;49.394;11.136;2022-07-10T03:35:40;5.67;;;2.73;;
3197;SDS011;1611;49.394;11.136;2022-07-10T03:38:08;6.43;;;2.40;;
3197;SDS011;1611;49.394;11.136;2022-07-10T03:40:35;7.77;;;3.17;;
3197;SDS011;1611;49.394;11.136;2022-07-10T03:43:01;6.00;;;3.00;;
3197;SDS011;1611;49.394;11.136;2022-07-10T03:45:28;2.67;;;2.40;;
3197;SDS011;1611;49.394;11.136;2022-07-10T03:47:55;2.43;;;2.13;;
3197;SDS011;1611;49.394;11.136;2022-07-10T03:50:22;2.90;;;1.90;;
3197;SDS011;1611;49.394;11.136;2022-07-10T03:52:48;3.43;;;2.13;;
3197;SDS011;1611;49.394;11.136;2022-07-10T03:55:16;3.73;;;2.73;;
3197;SDS011;1611;49.394;11.136;2022-07-10T03:57:43;9.30;;;2.40;;
3197;SDS011;1611;49.394;11.136;2022-07-10T04:00:22;6.97;;;2.23;;
3197;SDS011;1611;49.394;11.136;2022-07-10T04:02:56;4.97;;;2.10;;
3197;SDS011;1611;49.394;11.136;2022-07-10T04:05:23;5.37;;;2.53;;
3197;SDS011;1611;49.394;11.136;2022-07-10T04:07:51;2.43;;;2.10;;
3197;SDS011;1611;49.394;11.136;2022-07-10T04:10:20;6.30;;;1.90;;
3197;SDS011;1611;49.394;11.136;2022-07-10T04:12:46;3.80;;;1.83;;
3197;SDS011;1611;49.394;11.136;2022-07-10T04:15:13;3.93;;;2.27;;
3197;SDS011;1611;49.394;11.136;2022-07-10T04:17:40;5.17;;;2.57;;
3197;SDS011;1611;49.394;11.136;2022-07-10T04:20:07;6.87;;;1.80;;
3197;SDS011;1611;49.394;11.136;2022-07-10T04:22:35;3.80;;;2.10;;
3197;SDS011;1611;49.394;11.136;2022-07-10T04:25:02;4.43;;;1.90;;
3197;SDS011;1611;49.394;11.136;2022-07-10T04:27:31;10.13;;;2.23;;
3197;SDS011;1611;49.394;11.136;2022-07-10T04:29:58;5.67;;;1.90;;
3197;SDS011;1611;49.394;11.136;2022-07-10T04:32:25;3.00;;;2.60;;
3197;SDS011;1611;49.394;11.136;2022-07-10T04:34:52;2.40;;;2.20;;
3197;SDS011;1611;49.394;11.136;2022-07-10T04:37:19;6.23;;;2.97;;
3197;SDS011;1611;49.394;11.136;2022-07-10T04:39:46;2.43;;;2.13;;
3197;SDS011;1611;49.394;11.136;2022-07-10T04:42:13;2.80;;;2.60;;
3197;SDS011;1611;49.394;11.136;2022-07-10T04:44:42;5.77;;;2.70;;
3197;SDS011;1611;49.394;11.136;2022-07-10T04:47:08;3.33;;;2.53;;
3197;SDS011;1611;49.394;11.136;2022-07-10T04:49:36;4.43;;;2.83;;
3197;SDS011;1611;49.394;11.136;2022-07-10T04:52:03;4.70;;;2.57;;
3197;SDS011;1611;49.394;11.136;2022-07-10T04:54:30;5.07;;;2.33;;
3197;SDS011;1611;49.394;11.136;2022-07-10T04:56:57;3.17;;;1.90;;
3197;SDS011;1611;49.394;11.136;2022-07-10T04:59:25;3.47;;;2.03;;
3197;SDS011;1611;49.394;11.136;2022-07-10T05:01:53;5.33;;;2.07;;
3197;SDS011;1611;49.394;11.136;2022-07-10T05:04:20;2.50;;;2.03;;
3197;SDS011;1611;49.394;11.136;2022-07-10T05:06:46;3.87;;;2.27;;
3197;SDS011;1611;49.394;11.136;2022-07-10T05:09:13;5.33;;;1.73;;
3197;SDS011;1611;49.394;11.136;2022-07-10T05:11:40;3.10;;;1.63;;
3197;SDS011;1611;49.394;11.136;2022-07-10T05:14:07;2.37;;;1.73;;
3197;SDS011;1611;49.394;11.136;2022-07-10T05:16:33;2.40;;;1.77;;
3197;SDS011;1611;49.394;11.136;2022-07-10T05:19:02;2.37;;;1.77;;
3197;SDS011;1611;49.394;11.136;2022-07-10T05:21:28;4.83;;;1.80;;
3197;SDS011;1611;49.394;11.136;2022-07-10T05:23:55;6.20;;;1.90;;
3197;SDS011;1611;49.394;11.136;2022-07-10T05:26:22;4.43;;;1.87;;
3197;SDS011;1611;49.394;11.136;2022-07-10T05:28:49;3.13;;;1.97;;
3197;SDS011;1611;49.394;11.136;2022-07-10T05:31:15;9.03;;;2.30;;
3197;SDS011;1611;49.394;11.136;2022-07-10T05:33:42;2.63;;;1.67;;
3197;SDS011;1611;49.394;11.136;2022-07-10T05:36:10;3.60;;;1.80;;
3197;SDS011;1611;49.394;11.136;2022-07-10T05:38:37;6.03;;;1.97;;
3197;SDS011;1611;49.394;11.136;2022-07-10T05:41:04;4.53;;;2.00;;
3197;SDS011;1611;49.394;11.136;2022-07-10T05:43:30;3.90;;;1.70;;
3197;SDS011;1611;49.394;11.136;2022-07-10T05:45:57;2.13;;;1.90;;
3197;SDS011;1611;49.394;11.136;2022-07-10T05:48:24;3.33;;;2.00;;
3197;SDS011;1611;49.394;11.136;2022-07-10T05:50:51;7.70;;;1.80;;
3197;SDS011;1611;49.394;11.136;2022-07-10T05:53:19;3.43;;;2.00;;
3197;SDS011;1611;49.394;11.136;2022-07-10T05:55:46;6.07;;;2.00;;
3197;SDS011;1611;49.394;11.136;2022-07-10T05:58:13;1.70;;;1.60;;
3197;SDS011;1611;49.394;11.136;2022-07-10T06:00:40;2.23;;;1.33;;
3197;SDS011;1611;49.394;11.136;2022-07-10T06:03:08;2.83;;;1.77;;
3197;SDS011;1611;49.394;11.136;2022-07-10T06:05:35;2.60;;;1.80;;
3197;SDS011;1611;49.394;11.136;2022-07-10T06:08:02;6.43;;;1.87;;
3197;SDS011;1611;49.394;11.136;2022-07-10T06:10:31;4.17;;;1.50;;
3197;SDS011;1611;49.394;11.136;2022-07-10T06:12:57;4.40;;;1.47;;
3197;SDS011;1611;49.394;11.136;2022-07-10T06:15:24;6.53;;;1.80;;
3197;SDS011;1611;49.394;11.136;2022-07-10T06:17:51;3.30;;;1.37;;
3197;SDS011;1611;49.394;11.136;2022-07-10T06:20:17;7.73;;;2.37;;
3197;SDS011;1611;49.394;11.136;2022-07-10T06:22:44;2.40;;;1.77;;
3197;SDS011;1611;49.394;11.136;2022-07-10T06:25:11;4.77;;;2.10;;
3197;SDS011;1611;49.394;11.136;2022-07-10T06:27:39;6.17;;;2.03;;
3197;SDS011;1611;49.394;11.136;2022-07-10T06:30:06;7.57;;;2.17;;
3197;SDS011;1611;49.394;11.136;2022-07-10T06:32:33;2.27;;;1.37;;
3197;SDS011;1611;49.394;11.136;2022-07-10T06:35:00;5.43;;;1.63;;
3197;SDS011;1611;49.394;11.136;2022-07-10T06:37:27;2.57;;;1.40;;
3197;SDS011;1611;49.394;11.136;2022-07-10T06:39:54;2.73;;;1.60;;
3197;SDS011;1611;49.394;11.136;2022-07-10T06:42:21;6.00;;;1.87;;
3197;SDS011;1611;49.394;11.136;2022-07-10T06:44:49;5.37;;;1.47;;
3197;SDS011;1611;49.394;11.136;2022-07-10T06:47:16;5.03;;;1.80;;
3197;SDS011;1611;49.394;11.136;2022-07-10T06:50:04;4.07;;;1.70;;
3197;SDS011;1611;49.394;11.136;2022-07-10T06:52:32;2.93;;;1.60;;
3197;SDS011;1611;49.394;11.136;2022-07-10T06:54:59;1.80;;;1.47;;
3197;SDS011;1611;49.394;11.136;2022-07-10T06:57:26;5.50;;;1.67;;
3197;SDS011;1611;49.394;11.136;2022-07-10T06:59:54;3.30;;;1.90;;
3197;SDS011;1611;49.394;11.136;2022-07-10T07:02:21;5.00;;;2.13;;
3197;SDS011;1611;49.394;11.136;2022-07-10T07:04:48;13.90;;;2.03;;
3197;SDS011;1611;49.394;11.136;2022-07-10T07:07:15;3.50;;;1.63;;
3197;SDS011;1611;49.394;11.136;2022-07-10T07:09:42;4.10;;;1.90;;
3197;SDS011;1611;49.394;11.136;2022-07-10T07:12:10;3.00;;;1.30;;
3197;SDS011;1611;49.394;11.136;2022-07-10T07:14:37;5.60;;;1.73;;
3197;SDS011;1611;49.394;11.136;2022-07-10T07:17:05;1.53;;;1.43;;
3197;SDS011;1611;49.394;11.136;2022-07-10T07:19:34;4.47;;;2.23;;
3197;SDS011;1611;49.394;11.136;2022-07-10T07:22:14;3.90;;;1.60;;
3197;SDS011;1611;49.394;11.136;2022-07-10T07:24:58;2.80;;;1.60;;
3197;SDS011;1611;49.394;11.136;2022-07-10T07:27:25;2.40;;;1.70;;
3197;SDS011;1611;49.394;11.136;2022-07-10T07:29:52;2.03;;;1.43;;
3197;SDS011;1611;49.394;11.136;2022-07-10T07:32:20;3.37;;;1.90;;
3197;SDS011;1611;49.394;11.136;2022-07-10T07:34:47;5.37;;;2.07;;
3197;SDS011;1611;49.394;11.136;2022-07-10T07:37:13;4.20;;;1.33;;
3197;SDS011;1611;49.394;11.136;2022-07-10T07:39:40;5.53;;;1.80;;
3197;SDS011;1611;49.394;11.136;2022-07-10T07:42:07;3.83;;;1.67;;
3197;SDS011;1611;49.394;11.136;2022-07-10T07:44:34;4.77;;;1.73;;
3197;SDS011;1611;49.394;11.136;2022-07-10T07:47:00;10.63;;;2.13;;
3197;SDS011;1611;49.394;11.136;2022-07-10T07:49:29;2.97;;;1.67;;
3197;SDS011;1611;49.394;11.136;2022-07-10T07:51:55;2.67;;;1.40;;
3197;SDS011;1611;49.394;11.136;2022-07-10T07:54:22;2.93;;;1.30;;
3197;SDS011;1611;49.394;11.136;2022-07-10T07:56:49;3.57;;;1.73;;
3197;SDS011;1611;49.394;11.136;2022-07-10T07:59:16;7.93;;;2.00;;
3197;SDS011;1611;49.394;11.136;2022-07-10T08:01:42;2.30;;;1.37;;
3197;SDS011;1611;49.394;11.136;2022-07-10T08:04:10;2.60;;;1.30;;
3197;SDS011;1611;49.394;11.136;2022-07-10T08:06:38;8.67;;;1.80;;
3197;SDS011;1611;49.394;11.136;2022-07-10T08:09:04;2.30;;;1.50;;
3197;SDS011;1611;49.394;11.136;2022-07-10T08:11:31;1.40;;;1.07;;
3197;SDS011;1611;49.394;11.136;2022-07-10T08:13:58;1.20;;;1.10;;
3197;SDS011;1611;49.394;11.136;2022-07-10T08:16:25;3.53;;;1.00;;
3197;SDS011;1611;49.394;11.136;2022-07-10T08:18:51;3.80;;;1.53;;
3197;SDS011;1611;49.394;11.136;2022-07-10T08:21:18;2.77;;;1.03;;
3197;SDS011;1611;49.394;11.136;2022-07-10T08:23:46;3.13;;;1.40;;
3197;SDS011;1611;49.394;11.136;2022-07-10T08:26:13;2.87;;;1.10;;
3197;SDS011;1611;49.394;11.136;2022-07-10T08:28:40;1.50;;;1.30;;
3197;SDS011;1611;49.394;11.136;2022-07-10T08:31:06;4.17;;;1.30;;
3197;SDS011;1611;49.394;11.136;2022-07-10T08:33:33;1.30;;;1.20;;
3197;SDS011;1611;49.394;11.136;2022-07-10T08:36:00;4.93;;;1.17;;
3197;SDS011;1611;49.394;11.136;2022-07-10T08:38:27;4.00;;;1.23;;
3197;SDS011;1611;49.394;11.136;2022-07-10T08:40:55;2.87;;;1.20;;
3197;SDS011;1611;49.394;11.136;2022-07-10T08:43:23;1.00;;;0.90;;
3197;SDS011;1611;49.394;11.136;2022-07-10T08:45:51;1.20;;;1.10;;
3197;SDS011;1611;49.394;11.136;2022-07-10T08:48:20;4.57;;;1.20;;
3197;SDS011;1611;49.394;11.136;2022-07-10T08:50:51;1.87;;;1.17;;
3197;SDS011;1611;49.394;11.136;2022-07-10T08:53:22;1.70;;;1.27;;
3197;SDS011;1611;49.394;11.136;2022-07-10T08:55:56;7.80;;;1.30;;
3197;SDS011;1611;49.394;11.136;2022-07-10T08:58:23;2.40;;;1.23;;
3197;SDS011;1611;49.394;11.136;2022-07-10T09:00:51;2.23;;;1.13;;
3197;SDS011;1611;49.394;11.136;2022-07-10T09:03:19;1.37;;;1.27;;
3197;SDS011;1611;49.394;11.136;2022-07-10T09:05:46;2.30;;;1.20;;
3197;SDS011;1611;49.394;11.136;2022-07-10T09:08:20;3.70;;;1.30;;
3197;SDS011;1611;49.394;11.136;2022-07-10T09:10:48;1.60;;;1.10;;
3197;SDS011;1611;49.394;11.136;2022-07-10T09:13:17;1.07;;;0.97;;
3197;SDS011;1611;49.394;11.136;2022-07-10T09:15:47;1.20;;;1.10;;
3197;SDS011;1611;49.394;11.136;2022-07-10T09:18:17;6.00;;;1.33;;
3197;SDS011;1611;49.394;11.136;2022-07-10T09:20:45;1.97;;;1.70;;
3197;SDS011;1611;49.394;11.136;2022-07-10T09:23:15;1.27;;;0.97;;
3197;SDS011;1611;49.394;11.136;2022-07-10T09:25:44;1.70;;;1.27;;
3197;SDS011;1611;49.394;11.136;2022-07-10T09:28:12;1.30;;;1.10;;
3197;SDS011;1611;49.394;11.136;2022-07-10T09:30:41;2.93;;;1.30;;
3197;SDS011;1611;49.394;11.136;2022-07-10T09:33:14;1.73;;;1.00;;
3197;SDS011;1611;49.394;11.136;2022-07-10T09:35:53;4.57;;;1.47;;
3197;SDS011;1611;49.394;11.136;2022-07-10T09:41:16;1.53;;;1.33;;
3197;SDS011;1611;49.394;11.136;2022-07-10T09:43:45;3.27;;;1.20;;
3197;SDS011;1611;49.394;11.136;2022-07-10T09:46:14;1.77;;;0.90;;
3197;SDS011;1611;49.394;11.136;2022-07-10T09:48:41;3.13;;;1.20;;
3197;SDS011;1611;49.394;11.136;2022-07-10T09:51:08;1.37;;;1.10;;
3197;SDS011;1611;49.394;11.136;2022-07-10T09:53:37;4.93;;;1.47;;
3197;SDS011;1611;49.394;11.136;2022-07-10T09:56:06;5.00;;;1.40;;
3197;SDS011;1611;49.394;11.136;2022-07-10T09:58:34;1.63;;;1.53;;
3197;SDS011;1611;49.394;11.136;2022-07-10T10:01:01;2.63;;;1.17;;
3197;SDS011;1611;49.394;11.136;2022-07-10T10:03:32;1.67;;;1.10;;
3197;SDS011;1611;49.394;11.136;2022-07-10T10:06:02;2.93;;;1.00;;
3197;SDS011;1611;49.394;11.136;2022-07-10T10:08:31;3.07;;;1.50;;
3197;SDS011;1611;49.394;11.136;2022-07-10T10:11:02;1.93;;;1.00;;
3197;SDS011;1611;49.394;11.136;2022-07-10T10:13:30;7.00;;;1.20;;
3197;SDS011;1611;49.394;11.136;2022-07-10T10:16:00;1.10;;;1.07;;
3197;SDS011;1611;49.394;11.136;2022-07-10T10:18:28;1.07;;;1.07;;
3197;SDS011;1611;49.394;11.136;2022-07-10T10:20:56;1.10;;;1.00;;
3197;SDS011;1611;49.394;11.136;2022-07-10T10:23:23;1.40;;;1.10;;
3197;SDS011;1611;49.394;11.136;2022-07-10T10:25:53;1.17;;;1.00;;
3197;SDS011;1611;49.394;11.136;2022-07-10T10:28:21;1.77;;;1.23;;
3197;SDS011;1611;49.394;11.136;2022-07-10T10:30:50;1.40;;;1.20;;
3197;SDS011;1611;49.394;11.136;2022-07-10T10:36:13;2.03;;;1.30;;
3197;SDS011;1611;49.394;11.136;2022-07-10T10:39:02;1.17;;;0.93;;
3197;SDS011;1611;49.394;11.136;2022-07-10T10:41:39;1.30;;;1.07;;
3197;SDS011;1611;49.394;11.136;2022-07-10T10:44:19;4.43;;;1.20;;
3197;SDS011;1611;49.394;11.136;2022-07-10T10:46:53;2.10;;;1.33;;
3197;SDS011;1611;49.394;11.136;2022-07-10T10:49:48;1.07;;;0.93;;
3197;SDS011;1611;49.394;11.136;2022-07-10T10:52:18;2.90;;;1.47;;
3197;SDS011;1611;49.394;11.136;2022-07-10T10:57:37;3.63;;;1.10;;
3197;SDS011;1611;49.394;11.136;2022-07-10T11:00:09;1.73;;;1.10;;
3197;SDS011;1611;49.394;11.136;2022-07-10T11:02:39;2.93;;;1.30;;
3197;SDS011;1611;49.394;11.136;2022-07-10T11:08:07;2.10;;;1.40;;
3197;SDS011;1611;49.394;11.136;2022-07-10T11:10:35;2.90;;;1.40;;
3197;SDS011;1611;49.394;11.136;2022-07-10T11:13:03;4.83;;;1.50;;
3197;SDS011;1611;49.394;11.136;2022-07-10T11:15:31;2.03;;;1.50;;
3197;SDS011;1611;49.394;11.136;2022-07-10T11:17:58;2.50;;;2.00;;
3197;SDS011;1611;49.394;11.136;2022-07-10T11:20:30;2.60;;;1.90;;
3197;SDS011;1611;49.394;11.136;2022-07-10T11:23:01;1.13;;;1.13;;
3197;SDS011;1611;49.394;11.136;2022-07-10T11:25:42;7.30;;;4.07;;
3197;SDS011;1611;49.394;11.136;2022-07-10T11:28:15;4.23;;;2.10;;
3197;SDS011;1611;49.394;11.136;2022-07-10T11:30:51;7.83;;;1.43;;
3197;SDS011;1611;49.394;11.136;2022-07-10T11:33:19;1.80;;;1.43;;
3197;SDS011;1611;49.394;11.136;2022-07-10T11:35:48;2.43;;;1.27;;
3197;SDS011;1611;49.394;11.136;2022-07-10T11:38:21;2.03;;;1.47;;
3197;SDS011;1611;49.394;11.136;2022-07-10T11:40:49;4.23;;;1.40;;
3197;SDS011;1611;49.394;11.136;2022-07-10T11:43:17;2.10;;;1.20;;
3197;SDS011;1611;49.394;11.136;2022-07-10T11:45:47;3.20;;;1.50;;
3197;SDS011;1611;49.394;11.136;2022-07-10T11:48:17;2.50;;;1.40;;
3197;SDS011;1611;49.394;11.136;2022-07-10T11:50:44;3.37;;;1.60;;
3197;SDS011;1611;49.394;11.136;2022-07-10T11:53:11;1.73;;;1.50;;
3197;SDS011;1611;49.394;11.136;2022-07-10T11:55:40;6.83;;;2.40;;
3197;SDS011;1611;49.394;11.136;2022-07-10T11:58:13;2.40;;;1.43;;
3197;SDS011;1611;49.394;11.136;2022-07-10T12:00:41;2.23;;;1.80;;
3197;SDS011;1611;49.394;11.136;2022-07-10T12:03:18;1.50;;;1.20;;
3197;SDS011;1611;49.394;11.136;2022-07-10T12:05:47;1.90;;;1.63;;
3197;SDS011;1611;49.394;11.136;2022-07-10T12:08:15;2.10;;;1.33;;
3197;SDS011;1611;49.394;11.136;2022-07-10T12:10:44;2.80;;;1.50;;
3197;SDS011;1611;49.394;11.136;2022-07-10T12:13:12;1.63;;;1.27;;
3197;SDS011;1611;49.394;11.136;2022-07-10T12:15:40;1.87;;;1.30;;
3197;SDS011;1611;49.394;11.136;2022-07-10T12:18:09;2.50;;;1.43;;
3197;SDS011;1611;49.394;11.136;2022-07-10T12:20:42;1.23;;;1.20;;
3197;SDS011;1611;49.394;11.136;2022-07-10T12:23:10;2.80;;;1.20;;
3197;SDS011;1611;49.394;11.136;2022-07-10T12:25:40;4.03;;;1.33;;
3197;SDS011;1611;49.394;11.136;2022-07-10T12:28:09;3.13;;;1.50;;
3197;SDS011;1611;49.394;11.136;2022-07-10T12:30:38;2.13;;;1.47;;
3197;SDS011;1611;49.394;11.136;2022-07-10T12:33:06;1.50;;;1.20;;
3197;SDS011;1611;49.394;11.136;2022-07-10T12:35:47;2.37;;;1.30;;
3197;SDS011;1611;49.394;11.136;2022-07-10T12:38:20;1.23;;;1.23;;
3197;SDS011;1611;49.394;11.136;2022-07-10T12:40:48;1.20;;;1.20;;
3197;SDS011;1611;49.394;11.136;2022-07-10T12:43:26;6.43;;;1.80;;
3197;SDS011;1611;49.394;11.136;2022-07-10T12:46:10;1.37;;;1.20;;
3197;SDS011;1611;49.394;11.136;2022-07-10T12:48:37;1.30;;;1.20;;
3197;SDS011;1611;49.394;11.136;2022-07-10T12:51:21;5.00;;;1.87;;
3197;SDS011;1611;49.394;11.136;2022-07-10T12:53:49;2.63;;;1.40;;
3197;SDS011;1611;49.394;11.136;2022-07-10T12:56:32;1.40;;;1.30;;
3197;SDS011;1611;49.394;11.136;2022-07-10T12:59:02;1.83;;;1.33;;
3197;SDS011;1611;49.394;11.136;2022-07-10T13:01:40;3.37;;;1.60;;
3197;SDS011;1611;49.394;11.136;2022-07-10T13:04:08;1.93;;;1.23;;
3197;SDS011;1611;49.394;11.136;2022-07-10T13:06:35;1.97;;;1.37;;
3197;SDS011;1611;49.394;11.136;2022-07-10T13:09:17;1.00;;;1.00;;
3197;SDS011;1611;49.394;11.136;2022-07-10T13:11:45;1.90;;;1.47;;
3197;SDS011;1611;49.394;11.136;2022-07-10T13:14:13;1.07;;;1.00;;
3197;SDS011;1611;49.394;11.136;2022-07-10T13:16:40;1.10;;;1.00;;
3197;SDS011;1611;49.394;11.136;2022-07-10T13:19:07;1.60;;;1.50;;
3197;SDS011;1611;49.394;11.136;2022-07-10T13:21:34;1.90;;;1.20;;
3197;SDS011;1611;49.394;11.136;2022-07-10T13:24:01;1.47;;;1.00;;
3197;SDS011;1611;49.394;11.136;2022-07-10T13:26:28;2.10;;;1.30;;
3197;SDS011;1611;49.394;11.136;2022-07-10T13:28:55;1.57;;;1.17;;
3197;SDS011;1611;49.394;11.136;2022-07-10T13:31:23;1.57;;;1.47;;
3197;SDS011;1611;49.394;11.136;2022-07-10T13:33:50;1.40;;;1.30;;
3197;SDS011;1611;49.394;11.136;2022-07-10T13:36:17;3.00;;;1.20;;
3197;SDS011;1611;49.394;11.136;2022-07-10T13:38:43;1.33;;;1.10;;
3197;SDS011;1611;49.394;11.136;2022-07-10T13:41:12;2.20;;;1.30;;
3197;SDS011;1611;49.394;11.136;2022-07-10T13:43:39;1.77;;;1.10;;
3197;SDS011;1611;49.394;11.136;2022-07-10T13:46:05;1.23;;;1.00;;
3197;SDS011;1611;49.394;11.136;2022-07-10T13:48:33;1.20;;;1.20;;
3197;SDS011;1611;49.394;11.136;2022-07-10T13:51:00;1.60;;;1.00;;
3197;SDS011;1611;49.394;11.136;2022-07-10T13:53:27;1.20;;;1.10;;
3197;SDS011;1611;49.394;11.136;2022-07-10T13:55:54;2.10;;;1.17;;
3197;SDS011;1611;49.394;11.136;2022-07-10T13:58:21;1.30;;;1.20;;
3197;SDS011;1611;49.394;11.136;2022-07-10T14:00:48;1.40;;;1.07;;
3197;SDS011;1611;49.394;11.136;2022-07-10T14:03:15;1.07;;;0.90;;
3197;SDS011;1611;49.394;11.136;2022-07-10T14:05:43;2.27;;;1.20;;
3197;SDS011;1611;49.394;11.136;2022-07-10T14:08:10;1.57;;;1.40;;
3197;SDS011;1611;49.394;11.136;2022-07-10T14:10:36;3.43;;;1.30;;
3197;SDS011;1611;49.394;11.136;2022-07-10T14:13:03;1.10;;;1.00;;
3197;SDS011;1611;49.394;11.136;2022-07-10T14:15:31;3.83;;;1.33;;
3197;SDS011;1611;49.394;11.136;2022-07-10T14:17:58;1.37;;;1.27;;
3197;SDS011;1611;49.394;11.136;2022-07-10T14:20:25;4.30;;;1.10;;
3197;SDS011;1611;49.394;11.136;2022-07-10T14:22:53;2.10;;;1.57;;
3197;SDS011;1611;49.394;11.136;2022-07-10T14:25:20;1.27;;;1.10;;
3197;SDS011;1611;49.394;11.136;2022-07-10T14:27:51;3.73;;;1.37;;
3197;SDS011;1611;49.394;11.136;2022-07-10T14:30:18;3.60;;;1.37;;
3197;SDS011;1611;49.394;11.136;2022-07-10T14:32:44;1.40;;;1.13;;
3197;SDS011;1611;49.394;11.136;2022-07-10T14:35:11;2.93;;;1.43;;
3197;SDS011;1611;49.394;11.136;2022-07-10T14:37:38;3.03;;;1.10;;
3197;SDS011;1611;49.394;11.136;2022-07-10T14:40:06;2.63;;;1.53;;
3197;SDS011;1611;49.394;11.136;2022-07-10T14:42:33;2.90;;;1.47;;
3197;SDS011;1611;49.394;11.136;2022-07-10T14:45:00;1.83;;;0.97;;
3197;SDS011;1611;49.394;11.136;2022-07-10T14:47:27;1.90;;;1.27;;
3197;SDS011;1611;49.394;11.136;2022-07-10T14:49:54;1.43;;;1.33;;
3197;SDS011;1611;49.394;11.136;2022-07-10T14:52:21;2.07;;;1.20;;
3197;SDS011;1611;49.394;11.136;2022-07-10T14:54:50;2.37;;;1.23;;
3197;SDS011;1611;49.394;11.136;2022-07-10T14:57:18;1.83;;;1.60;;
3197;SDS011;1611;49.394;11.136;2022-07-10T14:59:45;1.93;;;1.50;;
3197;SDS011;1611;49.394;11.136;2022-07-10T15:02:12;1.23;;;1.13;;
3197;SDS011;1611;49.394;11.136;2022-07-10T15:04:38;1.33;;;1.23;;
3197;SDS011;1611;49.394;11.136;2022-07-10T15:07:05;1.50;;;1.30;;
3197;SDS011;1611;49.394;11.136;2022-07-10T15:09:32;1.43;;;1.20;;
3197;SDS011;1611;49.394;11.136;2022-07-10T15:11:58;2.17;;;1.50;;
3197;SDS011;1611;49.394;11.136;2022-07-10T15:14:26;1.13;;;1.00;;
3197;SDS011;1611;49.394;11.136;2022-07-10T15:16:54;2.23;;;1.43;;
3197;SDS011;1611;49.394;11.136;2022-07-10T15:19:21;2.70;;;1.40;;